createdAt,value
2023-03-18T00:00:01.877Z,24.6
2023-03-18T00:05:54.417Z,24.4
2023-03-18T00:11:32.982Z,24.3
2023-03-18T00:16:23.109Z,24.1
2023-03-18T00:21:44.729Z,24.1
2023-03-18T00:27:37.151Z,23.9
2023-03-18T00:33:14.113Z,24.3
2023-03-18T00:39:07.266Z,24.6
2023-03-18T00:45:01.464Z,24.8
2023-03-18T00:50:22.981Z,24.4
2023-03-18T00:56:00.713Z,24
2023-03-18T01:01:54.913Z,23.9
2023-03-18T01:07:32.090Z,23.6
2023-03-18T01:13:12.607Z,23.6
2023-03-18T01:19:06.058Z,23.4
2023-03-18T01:24:27.826Z,23.7
2023-03-18T01:30:04.842Z,24
2023-03-18T01:35:57.951Z,24.4
2023-03-18T01:41:49.514Z,24.1
2023-03-18T01:47:26.929Z,23.8
2023-03-18T01:52:49.171Z,23.5
2023-03-18T01:58:41.447Z,23.4
2023-03-18T02:04:34.025Z,23.2
2023-03-18T02:10:28.368Z,23.1
2023-03-18T02:16:05.435Z,23.1
2023-03-18T02:21:26.983Z,23.4
2023-03-18T02:27:05.189Z,23.9
2023-03-18T02:32:57.695Z,24.1
2023-03-18T02:38:51.145Z,23.8
2023-03-18T02:44:44.496Z,23.3
2023-03-18T02:50:35.973Z,23.2
2023-03-18T02:56:28.492Z,22.9
2023-03-18T03:01:35.354Z,22.9
2023-03-18T03:07:13.706Z,22.8
2023-03-18T03:12:50.354Z,22.9
2023-03-18T03:18:27.665Z,23.2
2023-03-18T03:24:20.973Z,23.8
2023-03-18T03:30:12.976Z,23.9
2023-03-18T03:35:35.419Z,23.5
2023-03-18T03:41:27.972Z,23.1
2023-03-18T03:47:21.215Z,22.9
2023-03-18T03:52:59.357Z,22.8
2023-03-18T03:58:36.232Z,22.7
2023-03-18T04:04:13.243Z,22.6
2023-03-18T04:09:35.556Z,22.8
2023-03-18T04:15:28.200Z,23.1
2023-03-18T04:20:50.973Z,23.3
2023-03-18T04:26:27.867Z,23.1
2023-03-18T04:32:20.273Z,23.7
2023-03-18T04:38:13.359Z,23.7
2023-03-18T04:44:06.397Z,23.3
2023-03-18T04:49:59.634Z,22.9
2023-03-18T04:55:37.462Z,22.8
2023-03-18T05:01:18.459Z,22.5
2023-03-18T05:07:11.507Z,22.4
2023-03-18T05:13:03.658Z,22.4
2023-03-18T05:18:40.732Z,22.7
2023-03-18T05:24:17.709Z,23.2
2023-03-18T05:30:10.210Z,23.7
2023-03-18T05:36:04.986Z,23.4
2023-03-18T05:41:57.159Z,23
2023-03-18T05:47:58.306Z,22.7
2023-03-18T05:53:51.282Z,22.5
2023-03-18T05:59:29.999Z,22.4
2023-03-18T06:04:52.755Z,22.3
2023-03-18T06:10:48.075Z,22.3
2023-03-18T06:16:40.808Z,22.6
2023-03-18T06:22:19.126Z,23.3
2023-03-18T06:28:11.739Z,23.6
2023-03-18T06:34:05.974Z,23.4
2023-03-18T06:39:58.371Z,22.9
2023-03-18T06:45:51.827Z,22.6
2023-03-18T06:51:46.493Z,22.5
2023-03-18T06:57:38.089Z,22.3
2023-03-18T07:03:15.694Z,22.3
2023-03-18T07:09:09.064Z,22.3
2023-03-18T07:15:00.268Z,22.6
2023-03-18T07:20:57.169Z,23.1
2023-03-18T07:26:36.237Z,23.2
2023-03-18T07:32:16.754Z,22.9
2023-03-18T07:38:10.854Z,23.2
2023-03-18T07:44:05.644Z,23.6
2023-03-18T07:49:58.382Z,23.2
2023-03-18T07:55:51.522Z,22.8
2023-03-18T08:01:49.439Z,22.6
2023-03-18T08:07:27.776Z,22.4
2023-03-18T08:13:40.820Z,22.4
2023-03-18T08:19:34.282Z,22.8
2023-03-18T08:25:26.637Z,23.4
2023-03-18T08:31:20.544Z,23.3
2023-03-18T08:37:16.703Z,23
2023-03-18T08:42:53.069Z,22.9
2023-03-18T08:48:46.300Z,22.8
2023-03-18T08:54:23.202Z,22.6
2023-03-18T09:00:00.150Z,23.3
2023-03-18T09:05:22.807Z,23.3
2023-03-18T09:11:22.751Z,23
2023-03-18T09:17:15.208Z,22.9
2023-03-18T09:23:34.496Z,22.7
2023-03-18T09:29:27.179Z,23.3
2023-03-18T09:35:19.296Z,23.4
2023-03-18T09:41:13.885Z,23.1
2023-03-18T09:47:07.053Z,22.9
2023-03-18T09:52:59.514Z,22.9
2023-03-18T09:58:36.933Z,23.6
2023-03-18T10:04:29.910Z,23.3
2023-03-18T10:10:06.507Z,23
2023-03-18T10:15:59.460Z,22.9
2023-03-18T10:21:38.156Z,23.3
2023-03-18T10:27:41.320Z,23.5
2023-03-18T10:33:52.550Z,23.2
2023-03-18T10:39:30.861Z,23
2023-03-18T10:45:22.920Z,23
2023-03-18T10:51:16.618Z,23.6
2023-03-18T10:57:09.066Z,23.4
2023-03-18T11:03:01.809Z,23.2
2023-03-18T11:08:54.918Z,23
2023-03-18T11:14:47.973Z,23.3
2023-03-18T11:20:41.180Z,23.8
2023-03-18T11:26:34.319Z,23.3
2023-03-18T11:32:36.790Z,23.1
2023-03-18T11:38:31.155Z,23
2023-03-18T11:44:28.771Z,23.6
2023-03-18T11:50:06.354Z,23.6
2023-03-18T11:55:28.229Z,23.3
2023-03-18T12:00:51.149Z,23.1
2023-03-18T12:06:13.176Z,23.1
2023-03-18T12:12:08.443Z,23.6
2023-03-18T12:18:03.261Z,23.4
2023-03-18T12:23:41.299Z,23.2
2023-03-18T12:29:02.779Z,23.1
2023-03-18T12:34:40.468Z,23.3
2023-03-18T12:40:36.464Z,23.7
2023-03-18T12:46:29.226Z,23.4
2023-03-18T12:52:18.832Z,23.1
2023-03-18T12:58:11.791Z,23.1
2023-03-18T13:03:55.086Z,23.5
2023-03-18T13:09:33.177Z,23.7
2023-03-18T13:15:28.939Z,23.4
2023-03-18T13:21:07.304Z,23.1
2023-03-18T13:27:00.843Z,23.2
2023-03-18T13:32:54.545Z,23.8
2023-03-18T13:38:49.268Z,23.7
2023-03-18T13:44:42.534Z,23.4
2023-03-18T13:50:21.045Z,23.2
2023-03-18T13:56:13.412Z,23.4
2023-03-18T14:02:07.408Z,23.9
2023-03-18T14:08:01.471Z,23.7
2023-03-18T14:14:10.387Z,23.4
2023-03-18T14:19:51.362Z,23.2
2023-03-18T14:25:15.010Z,23.1
2023-03-18T14:30:37.211Z,22.9
2023-03-18T14:36:15.003Z,22.9
2023-03-18T14:42:09.450Z,22.8
2023-03-18T14:47:56.230Z,22.7
2023-03-18T14:53:33.815Z,22.6
2023-03-18T14:59:25.733Z,22.5
2023-03-18T15:05:18.253Z,22.4
2023-03-18T15:11:09.593Z,22.3
2023-03-18T15:16:46.273Z,22.3
2023-03-18T15:22:39.126Z,22.2
2023-03-18T15:28:16.879Z,22.1
2023-03-18T15:34:10.050Z,22
2023-03-18T15:40:02.830Z,21.9
2023-03-18T15:45:40.176Z,21.8
2023-03-18T15:51:33.556Z,21.8
2023-03-18T15:57:11.872Z,21.7
2023-03-18T16:03:04.098Z,21.6
2023-03-18T16:08:56.705Z,21.5
2023-03-18T16:14:49.710Z,21.4
2023-03-18T16:20:27.409Z,21.4
2023-03-18T16:26:21.121Z,21.3
2023-03-18T16:32:13.231Z,21.3
2023-03-18T16:37:51.229Z,21.2
2023-03-18T16:49:06.176Z,21.1
2023-03-18T16:54:58.606Z,21.4
2023-03-18T17:00:35.862Z,22.3
2023-03-18T17:06:13.822Z,23
2023-03-18T17:12:06.895Z,23.8
2023-03-18T17:17:46.725Z,24.5
2023-03-18T17:23:38.439Z,25.1
2023-03-18T17:29:16.073Z,25.4
2023-03-18T17:35:12.011Z,25.8
2023-03-18T17:40:49.106Z,25.9
2023-03-18T17:46:27.019Z,26
2023-03-18T17:52:19.898Z,26.2
2023-03-18T17:57:56.422Z,26.4
2023-03-18T18:03:50.147Z,26.6
2023-03-18T18:09:12.143Z,27.1
2023-03-18T18:14:48.969Z,27.3
2023-03-18T18:20:45.016Z,27.6
2023-03-18T18:26:23.593Z,27.8
2023-03-18T18:32:04.314Z,27.9
2023-03-18T18:37:26.943Z,28.1
2023-03-18T18:43:19.928Z,28.1
2023-03-18T18:48:56.923Z,28.2
2023-03-18T18:54:35.387Z,28.4
2023-03-18T19:00:28.968Z,28.7
2023-03-18T19:06:07.328Z,28.9
2023-03-18T19:12:00.314Z,29.1
2023-03-18T19:17:39.042Z,29.4
2023-03-18T19:23:31.123Z,29.6
2023-03-18T19:29:16.279Z,29.7
2023-03-18T19:35:09.182Z,29.8
2023-03-18T19:40:46.962Z,29.8
2023-03-18T19:46:41.722Z,29.8
2023-03-18T19:52:21.265Z,29.8
2023-03-18T19:58:13.671Z,29.8
2023-03-18T20:04:10.347Z,29.7
2023-03-18T20:10:04.243Z,29.8
2023-03-18T20:15:56.325Z,29.8
2023-03-18T20:21:49.853Z,29.7
2023-03-18T20:27:26.526Z,29.7
2023-03-18T20:32:49.215Z,29.6
2023-03-18T20:38:11.949Z,29.6
2023-03-18T20:43:18.438Z,29.6
2023-03-18T20:48:56.091Z,29.5
2023-03-18T20:54:49.076Z,29.3
2023-03-18T21:00:26.168Z,29.2
2023-03-18T21:06:19.634Z,29
2023-03-18T21:11:57.645Z,28.8
2023-03-18T21:17:51.111Z,28.6
2023-03-18T21:23:56.630Z,28
2023-03-18T21:30:04.614Z,27.5
2023-03-18T21:35:45.732Z,27
2023-03-18T21:41:38.259Z,26.8
2023-03-18T21:47:16.704Z,26.4
2023-03-18T21:53:23.491Z,26.4
2023-03-18T21:59:15.869Z,25.9
2023-03-18T22:05:09.348Z,25.9
2023-03-18T22:10:46.160Z,25.8
2023-03-18T22:16:07.539Z,25.6
2023-03-18T22:22:01.323Z,25.5
2023-03-18T22:27:08.030Z,25.3
2023-03-18T22:32:45.472Z,25.3
2023-03-18T22:38:39.630Z,25.1
2023-03-18T22:44:31.453Z,25.3
2023-03-18T22:50:11.195Z,25.7
2023-03-18T22:55:48.389Z,25.6
2023-03-18T23:01:43.351Z,25.3
2023-03-18T23:07:06.355Z,24.9
2023-03-18T23:13:13.402Z,24.8
2023-03-18T23:19:06.636Z,24.5
2023-03-18T23:24:59.664Z,24.4
2023-03-18T23:30:56.999Z,24.2
2023-03-18T23:36:04.372Z,24.1
2023-03-18T23:41:57.044Z,24
2023-03-18T23:47:52.216Z,24.6
2023-03-18T23:53:45.568Z,24.9
